Terminal Aerodrome Forecast
Issued by NWS

Home | Current Version | Previous Version | Text Only | Print | Product List | Glossary On
Versions: 1 2 3 4 5 6 7 8 9 10 11 12 13 14 15 16 17 18 19
000
FTUS41 KRNK 211753
TAFBCB
TAF
KBCB 211753Z 2118/2218 20009G16KT P6SM BKN040
     FM212000 22009KT P6SM VCSH SCT025 BKN040
     FM220000 21005KT P6SM BKN025
     FM221200 19005KT 2SM -DZ BR BKN008
     FM221500 21007KT 5SM -DZ BR BKN015=

USA.gov is the U.S. government's official web portal to all federal, state and local government web resources and services.